Terminal Aerodrome Forecast
Issued by NWS

Current Version | Previous Version | Graphics & Text | Print | Product List | Glossary On
Versions: 1 2 3 4 5 6 7 8 9 10 11 12 13 14 15 16 17
000
FTUS41 KPBZ 251700
TAFMGW
TAF
KMGW 251739Z 2518/2618 28010KT P6SM SCT030 BKN250
     FM260000 35003KT P6SM OVC100
     FM260900 02008KT 6SM -SHSN BKN025
     FM261500 02010KT 3SM -SHSN BKN015=

USA.gov is the U.S. government's official web portal to all federal, state and local government web resources and services.